Pagrindinis puslapis
METAR-TAF:

METAR-TAF

Oro uostai :

Dalianas, Kinija

platuma: 38-54N, ilguma: 121-38E, Aukštis: 97 m

Dabartinis oras

Ataskaita buvo paskelbta 27 minutes, ne 18:00 UTC
Vėjas 4 kt iš Vakarų
Temperatūra -10°C
Drėgmė 85%
Slėgis 1029 hPa
Matomumas 10 km arba daugiau
nėra debesų žemiau 1500 m ir nėra kamuolinių lietaus debesų

METAR: ZYTL 171800Z 27002MPS CAVOK M10/M12 Q1029 NOSIG

Laikas: 02:27 (18:27 UTC)

Prognozė

Ataskaita buvo paskelbta 3 valandos ir 24 minutes, ne 15:03 UTC
Prognozė galioja nuo 17 metu 18 UTC su 18 metu 18 UTC
Vėjas 8 kt iš Vakarų
Matomumas 10 km arba daugiau
nėra debesų žemiau 1500 m ir nėra kamuolinių lietaus debesų

TAF: ZYTL 171503Z 1718/1818 27004MPS CAVOK TX05/1806Z TNM07/1721Z

Orai ataskaitas ir orų prognozės (METAR, TAF).

turimą stotys yra geltonos ir raudonos taškus žemėlapyje.

Perkelti pele per norėdami pamatyti stoties vardą.

Tada spustelėkite, norėdami matyti oro stebėjimo ir prognozės.

Norėdami pakeisti žemėlapį: spustelėkite ant žalios mygtukų su juodo kryžiaus žemyn,; žalią mygtuką su brūkšneliu, jei norite nutolinti; arba žalių rodyklių gretimoms žemėlapius.


METAR-TAF: